sensor_id;sensor_type;location;lat;lon;timestamp;pressure;altitude;pressure_sealevel;temperature;humidity
50105;BME280;47690;39.202;-77.198;2023-03-14T00:01:28;99490.66;;;35.21;10.18
50105;BME280;47690;39.202;-77.198;2023-03-14T00:03:58;99485.31;;;35.21;10.19
50105;BME280;47690;39.202;-77.198;2023-03-14T00:06:27;99489.63;;;35.22;10.34
50105;BME280;47690;39.202;-77.198;2023-03-14T00:08:56;99483.44;;;35.22;10.26
50105;BME280;47690;39.202;-77.198;2023-03-14T00:11:25;99484.25;;;35.16;10.30
50105;BME280;47690;39.202;-77.198;2023-03-14T00:13:55;99486.47;;;35.05;10.28
50105;BME280;47690;39.202;-77.198;2023-03-14T00:16:24;99492.84;;;35.04;10.16
50105;BME280;47690;39.202;-77.198;2023-03-14T00:18:52;99495.13;;;35.00;10.14
50105;BME280;47690;39.202;-77.198;2023-03-14T00:21:20;99497.16;;;34.98;10.27
50105;BME280;47690;39.202;-77.198;2023-03-14T00:23:49;99491.19;;;34.96;10.46
50105;BME280;47690;39.202;-77.198;2023-03-14T00:26:20;99492.81;;;34.97;10.35
50105;BME280;47690;39.202;-77.198;2023-03-14T00:28:53;99497.19;;;35.05;10.39
50105;BME280;47690;39.202;-77.198;2023-03-14T00:31:22;99501.50;;;35.06;10.27
50105;BME280;47690;39.202;-77.198;2023-03-14T00:33:52;99505.19;;;35.05;10.09
50105;BME280;47690;39.202;-77.198;2023-03-14T00:36:21;99504.81;;;35.08;10.21
50105;BME280;47690;39.202;-77.198;2023-03-14T00:38:51;99497.97;;;35.06;10.22
50105;BME280;47690;39.202;-77.198;2023-03-14T00:41:22;99493.88;;;35.03;10.18
50105;BME280;47690;39.202;-77.198;2023-03-14T00:43:51;99506.84;;;34.99;10.19
50105;BME280;47690;39.202;-77.198;2023-03-14T00:46:20;99501.50;;;34.99;10.14
50105;BME280;47690;39.202;-77.198;2023-03-14T00:48:48;99509.50;;;34.93;10.61
50105;BME280;47690;39.202;-77.198;2023-03-14T00:51:17;99510.72;;;34.90;10.58
50105;BME280;47690;39.202;-77.198;2023-03-14T00:53:45;99509.47;;;34.86;10.20
50105;BME280;47690;39.202;-77.198;2023-03-14T00:56:15;99508.44;;;34.87;10.25
50105;BME280;47690;39.202;-77.198;2023-03-14T00:58:43;99512.97;;;34.86;10.18
50105;BME280;47690;39.202;-77.198;2023-03-14T01:01:17;99522.06;;;34.92;10.24
50105;BME280;47690;39.202;-77.198;2023-03-14T01:03:47;99520.19;;;34.93;10.14
50105;BME280;47690;39.202;-77.198;2023-03-14T01:06:24;99522.44;;;34.89;10.16
50105;BME280;47690;39.202;-77.198;2023-03-14T01:08:55;99524.31;;;34.89;10.16
50105;BME280;47690;39.202;-77.198;2023-03-14T01:11:31;99528.22;;;34.93;10.30
50105;BME280;47690;39.202;-77.198;2023-03-14T01:14:01;99518.56;;;34.98;10.09
50105;BME280;47690;39.202;-77.198;2023-03-14T01:16:32;99525.91;;;34.83;10.40
50105;BME280;47690;39.202;-77.198;2023-03-14T01:19:02;99531.44;;;34.68;9.98
50105;BME280;47690;39.202;-77.198;2023-03-14T01:21:33;99537.28;;;34.50;10.15
50105;BME280;47690;39.202;-77.198;2023-03-14T01:24:04;99548.56;;;34.45;10.15
50105;BME280;47690;39.202;-77.198;2023-03-14T01:26:34;99547.72;;;34.38;10.37
50105;BME280;47690;39.202;-77.198;2023-03-14T01:29:05;99547.31;;;34.41;10.22
50105;BME280;47690;39.202;-77.198;2023-03-14T01:31:36;99547.47;;;34.32;9.97
50105;BME280;47690;39.202;-77.198;2023-03-14T01:34:05;99544.34;;;34.22;10.04
50105;BME280;47690;39.202;-77.198;2023-03-14T01:36:34;99546.16;;;34.15;9.98
50105;BME280;47690;39.202;-77.198;2023-03-14T01:39:05;99559.63;;;34.06;9.92
50105;BME280;47690;39.202;-77.198;2023-03-14T01:41:37;99554.50;;;34.05;10.01
50105;BME280;47690;39.202;-77.198;2023-03-14T01:44:11;99547.03;;;34.00;9.72
50105;BME280;47690;39.202;-77.198;2023-03-14T01:46:44;99550.09;;;33.97;9.85
50105;BME280;47690;39.202;-77.198;2023-03-14T01:52:28;99545.31;;;34.50;9.98
50105;BME280;47690;39.202;-77.198;2023-03-14T01:55:08;99553.50;;;34.48;9.47
50105;BME280;47690;39.202;-77.198;2023-03-14T01:57:44;99557.16;;;34.05;9.92
50105;BME280;47690;39.202;-77.198;2023-03-14T02:00:19;99556.41;;;33.89;10.04
50105;BME280;47690;39.202;-77.198;2023-03-14T02:03:02;99556.00;;;33.92;9.87
50105;BME280;47690;39.202;-77.198;2023-03-14T02:05:35;99550.88;;;34.97;9.06
50105;BME280;47690;39.202;-77.198;2023-03-14T02:08:14;99556.09;;;34.28;9.69
50105;BME280;47690;39.202;-77.198;2023-03-14T02:10:49;99560.03;;;34.03;9.87
50105;BME280;47690;39.202;-77.198;2023-03-14T02:13:25;99555.75;;;33.87;9.66
50105;BME280;47690;39.202;-77.198;2023-03-14T02:16:15;99558.44;;;33.87;9.77
50105;BME280;47690;39.202;-77.198;2023-03-14T02:19:03;99554.13;;;33.86;9.74
50105;BME280;47690;39.202;-77.198;2023-03-14T02:22:10;99554.38;;;33.91;9.60
50105;BME280;47690;39.202;-77.198;2023-03-14T02:27:39;99548.78;;;33.86;10.04
50105;BME280;47690;39.202;-77.198;2023-03-14T02:30:21;99551.06;;;34.11;9.38
50105;BME280;47690;39.202;-77.198;2023-03-14T02:33:01;99552.03;;;33.82;9.68
50105;BME280;47690;39.202;-77.198;2023-03-14T02:35:40;99549.91;;;33.70;9.57
50105;BME280;47690;39.202;-77.198;2023-03-14T02:41:09;99547.00;;;33.72;9.63
50105;BME280;47690;39.202;-77.198;2023-03-14T02:43:44;99545.91;;;33.88;9.80
50105;BME280;47690;39.202;-77.198;2023-03-14T02:46:18;99540.13;;;33.56;9.90
50105;BME280;47690;39.202;-77.198;2023-03-14T02:49:08;99539.53;;;33.60;9.80
50105;BME280;47690;39.202;-77.198;2023-03-14T02:51:40;99540.59;;;33.44;9.89
50105;BME280;47690;39.202;-77.198;2023-03-14T02:54:10;99551.22;;;33.37;9.88
50105;BME280;47690;39.202;-77.198;2023-03-14T02:56:39;99553.34;;;33.27;9.89
50105;BME280;47690;39.202;-77.198;2023-03-14T02:59:12;99550.44;;;33.22;10.00
50105;BME280;47690;39.202;-77.198;2023-03-14T03:01:48;99549.19;;;33.03;10.06
50105;BME280;47690;39.202;-77.198;2023-03-14T03:04:17;99549.75;;;32.83;9.99
50105;BME280;47690;39.202;-77.198;2023-03-14T03:06:46;99550.97;;;32.80;9.99
50105;BME280;47690;39.202;-77.198;2023-03-14T03:09:17;99546.44;;;32.81;9.81
50105;BME280;47690;39.202;-77.198;2023-03-14T03:11:46;99540.03;;;32.75;9.89
50105;BME280;47690;39.202;-77.198;2023-03-14T03:14:19;99542.78;;;32.82;9.66
50105;BME280;47690;39.202;-77.198;2023-03-14T03:16:48;99549.66;;;32.76;10.04
50105;BME280;47690;39.202;-77.198;2023-03-14T03:19:17;99540.50;;;32.64;9.96
50105;BME280;47690;39.202;-77.198;2023-03-14T03:21:47;99545.75;;;32.57;9.76
50105;BME280;47690;39.202;-77.198;2023-03-14T03:24:17;99535.81;;;32.51;10.01
50105;BME280;47690;39.202;-77.198;2023-03-14T03:26:45;99548.78;;;32.39;10.16
50105;BME280;47690;39.202;-77.198;2023-03-14T03:29:14;99549.75;;;32.38;9.92
50105;BME280;47690;39.202;-77.198;2023-03-14T03:31:43;99557.75;;;32.38;10.15
50105;BME280;47690;39.202;-77.198;2023-03-14T03:34:13;99547.25;;;32.36;9.96
50105;BME280;47690;39.202;-77.198;2023-03-14T03:36:43;99549.22;;;32.42;10.17
50105;BME280;47690;39.202;-77.198;2023-03-14T03:39:12;99546.00;;;32.47;10.03
50105;BME280;47690;39.202;-77.198;2023-03-14T03:41:42;99545.75;;;32.42;10.02
50105;BME280;47690;39.202;-77.198;2023-03-14T03:44:11;99546.00;;;32.32;9.78
50105;BME280;47690;39.202;-77.198;2023-03-14T03:46:41;99543.69;;;32.29;10.23
50105;BME280;47690;39.202;-77.198;2023-03-14T03:49:10;99551.22;;;32.25;9.82
50105;BME280;47690;39.202;-77.198;2023-03-14T03:51:40;99543.22;;;32.25;10.09
50105;BME280;47690;39.202;-77.198;2023-03-14T03:54:09;99536.78;;;32.20;9.87
50105;BME280;47690;39.202;-77.198;2023-03-14T03:56:41;99528.72;;;32.13;9.92
50105;BME280;47690;39.202;-77.198;2023-03-14T03:59:09;99528.44;;;32.08;9.69
50105;BME280;47690;39.202;-77.198;2023-03-14T04:01:39;99527.13;;;32.03;10.35
50105;BME280;47690;39.202;-77.198;2023-03-14T04:04:09;99535.50;;;32.00;9.68
50105;BME280;47690;39.202;-77.198;2023-03-14T04:06:39;99539.81;;;32.01;9.77
50105;BME280;47690;39.202;-77.198;2023-03-14T04:09:10;99553.03;;;31.95;10.00
50105;BME280;47690;39.202;-77.198;2023-03-14T04:11:46;99556.69;;;31.94;9.92
50105;BME280;47690;39.202;-77.198;2023-03-14T04:14:19;99563.38;;;31.89;9.57
50105;BME280;47690;39.202;-77.198;2023-03-14T04:16:57;99560.00;;;31.96;9.71
50105;BME280;47690;39.202;-77.198;2023-03-14T04:19:28;99562.97;;;32.01;9.99
50105;BME280;47690;39.202;-77.198;2023-03-14T04:21:59;99558.28;;;32.03;9.63
50105;BME280;47690;39.202;-77.198;2023-03-14T04:24:33;99557.16;;;31.97;9.77
50105;BME280;47690;39.202;-77.198;2023-03-14T04:27:03;99554.59;;;31.89;9.37
50105;BME280;47690;39.202;-77.198;2023-03-14T04:29:33;99547.97;;;32.00;9.36
50105;BME280;47690;39.202;-77.198;2023-03-14T04:32:02;99540.19;;;31.98;9.37
50105;BME280;47690;39.202;-77.198;2023-03-14T04:34:31;99556.69;;;31.94;9.71
50105;BME280;47690;39.202;-77.198;2023-03-14T04:37:01;99555.22;;;31.91;9.45
50105;BME280;47690;39.202;-77.198;2023-03-14T04:39:36;99558.34;;;31.95;9.78
50105;BME280;47690;39.202;-77.198;2023-03-14T04:42:15;99554.94;;;31.86;9.13
50105;BME280;47690;39.202;-77.198;2023-03-14T04:44:47;99547.34;;;31.74;9.25
50105;BME280;47690;39.202;-77.198;2023-03-14T04:47:21;99560.41;;;31.84;9.68
50105;BME280;47690;39.202;-77.198;2023-03-14T04:49:51;99562.44;;;31.82;9.53
50105;BME280;47690;39.202;-77.198;2023-03-14T04:52:22;99571.28;;;31.83;9.59
50105;BME280;47690;39.202;-77.198;2023-03-14T04:54:51;99560.13;;;31.79;9.63
50105;BME280;47690;39.202;-77.198;2023-03-14T04:57:22;99565.22;;;31.66;9.08
50105;BME280;47690;39.202;-77.198;2023-03-14T04:59:55;99561.06;;;31.63;9.01
50105;BME280;47690;39.202;-77.198;2023-03-14T05:02:45;99559.25;;;31.64;9.29
50105;BME280;47690;39.202;-77.198;2023-03-14T05:05:33;99562.25;;;31.37;9.37
50105;BME280;47690;39.202;-77.198;2023-03-14T05:08:37;99565.97;;;31.19;9.26
50105;BME280;47690;39.202;-77.198;2023-03-14T05:11:26;99556.25;;;31.03;8.91
50105;BME280;47690;39.202;-77.198;2023-03-14T05:14:19;99550.94;;;31.03;8.80
50105;BME280;47690;39.202;-77.198;2023-03-14T05:17:15;99553.53;;;30.88;9.10
50105;BME280;47690;39.202;-77.198;2023-03-14T05:20:15;99551.66;;;30.89;8.94
50105;BME280;47690;39.202;-77.198;2023-03-14T05:23:10;99546.34;;;30.97;9.15
50105;BME280;47690;39.202;-77.198;2023-03-14T05:25:55;99563.47;;;30.94;8.89
50105;BME280;47690;39.202;-77.198;2023-03-14T05:28:38;99557.72;;;30.83;9.06
50105;BME280;47690;39.202;-77.198;2023-03-14T05:31:31;99556.22;;;30.63;9.08
50105;BME280;47690;39.202;-77.198;2023-03-14T05:34:24;99561.59;;;30.47;8.68
50105;BME280;47690;39.202;-77.198;2023-03-14T05:37:25;99570.28;;;30.24;8.96
50105;BME280;47690;39.202;-77.198;2023-03-14T05:40:17;99563.97;;;30.25;9.10
50105;BME280;47690;39.202;-77.198;2023-03-14T05:43:06;99545.41;;;30.17;9.04
50105;BME280;47690;39.202;-77.198;2023-03-14T05:45:55;99556.38;;;30.14;8.97
50105;BME280;47690;39.202;-77.198;2023-03-14T05:48:45;99546.06;;;30.10;9.24
50105;BME280;47690;39.202;-77.198;2023-03-14T05:51:43;99548.06;;;30.17;9.03
50105;BME280;47690;39.202;-77.198;2023-03-14T05:54:38;99546.25;;;30.17;8.95
50105;BME280;47690;39.202;-77.198;2023-03-14T05:57:18;99540.44;;;30.05;8.85
50105;BME280;47690;39.202;-77.198;2023-03-14T06:00:05;99542.91;;;30.07;8.91
50105;BME280;47690;39.202;-77.198;2023-03-14T06:02:47;99546.06;;;30.10;9.01
50105;BME280;47690;39.202;-77.198;2023-03-14T06:05:22;99542.09;;;30.15;8.96
50105;BME280;47690;39.202;-77.198;2023-03-14T06:07:58;99545.28;;;31.06;7.74
50105;BME280;47690;39.202;-77.198;2023-03-14T06:10:30;99550.66;;;30.50;8.66
50105;BME280;47690;39.202;-77.198;2023-03-14T06:12:59;99552.72;;;30.15;9.03
50105;BME280;47690;39.202;-77.198;2023-03-14T06:15:29;99542.41;;;30.03;8.99
50105;BME280;47690;39.202;-77.198;2023-03-14T06:17:59;99547.06;;;29.93;8.90
50105;BME280;47690;39.202;-77.198;2023-03-14T06:20:29;99541.09;;;29.91;8.85
50105;BME280;47690;39.202;-77.198;2023-03-14T06:23:00;99549.72;;;29.84;9.04
50105;BME280;47690;39.202;-77.198;2023-03-14T06:25:32;99545.06;;;29.87;8.99
50105;BME280;47690;39.202;-77.198;2023-03-14T06:28:01;99543.41;;;29.85;8.85
50105;BME280;47690;39.202;-77.198;2023-03-14T06:30:33;99538.13;;;29.77;8.98
50105;BME280;47690;39.202;-77.198;2023-03-14T06:33:03;99548.88;;;29.76;8.93
50105;BME280;47690;39.202;-77.198;2023-03-14T06:35:33;99551.53;;;29.76;9.10
50105;BME280;47690;39.202;-77.198;2023-03-14T06:38:03;99540.75;;;29.85;9.26
50105;BME280;47690;39.202;-77.198;2023-03-14T06:40:33;99537.09;;;29.87;8.87
50105;BME280;47690;39.202;-77.198;2023-03-14T06:43:11;99530.81;;;29.88;8.96
50105;BME280;47690;39.202;-77.198;2023-03-14T06:45:43;99532.31;;;29.82;9.09
50105;BME280;47690;39.202;-77.198;2023-03-14T06:48:12;99537.63;;;29.82;8.94
50105;BME280;47690;39.202;-77.198;2023-03-14T06:50:50;99539.75;;;29.87;8.93
50105;BME280;47690;39.202;-77.198;2023-03-14T06:53:21;99530.16;;;29.77;8.88
50105;BME280;47690;39.202;-77.198;2023-03-14T06:55:52;99537.78;;;29.72;9.01
50105;BME280;47690;39.202;-77.198;2023-03-14T06:58:20;99537.63;;;29.74;8.95
50105;BME280;47690;39.202;-77.198;2023-03-14T07:00:49;99528.66;;;29.75;9.06
50105;BME280;47690;39.202;-77.198;2023-03-14T07:03:24;99530.50;;;29.82;8.74
50105;BME280;47690;39.202;-77.198;2023-03-14T07:05:55;99530.97;;;29.78;8.89
50105;BME280;47690;39.202;-77.198;2023-03-14T07:08:25;99523.50;;;29.73;8.93
50105;BME280;47690;39.202;-77.198;2023-03-14T07:10:56;99529.47;;;29.67;9.25
50105;BME280;47690;39.202;-77.198;2023-03-14T07:13:28;99522.84;;;29.63;9.09
50105;BME280;47690;39.202;-77.198;2023-03-14T07:16:03;99515.06;;;29.69;8.92
50105;BME280;47690;39.202;-77.198;2023-03-14T07:18:33;99511.91;;;29.66;9.11
50105;BME280;47690;39.202;-77.198;2023-03-14T07:21:06;99520.34;;;29.61;8.92
50105;BME280;47690;39.202;-77.198;2023-03-14T07:23:38;99518.19;;;29.65;8.88
50105;BME280;47690;39.202;-77.198;2023-03-14T07:26:08;99509.94;;;29.68;8.67
50105;BME280;47690;39.202;-77.198;2023-03-14T07:28:44;99505.09;;;29.63;8.99
50105;BME280;47690;39.202;-77.198;2023-03-14T07:31:17;99503.63;;;29.61;9.18
50105;BME280;47690;39.202;-77.198;2023-03-14T07:33:47;99506.25;;;29.52;8.66
50105;BME280;47690;39.202;-77.198;2023-03-14T07:36:17;99502.28;;;29.48;8.76
50105;BME280;47690;39.202;-77.198;2023-03-14T07:38:47;99487.84;;;29.42;9.17
50105;BME280;47690;39.202;-77.198;2023-03-14T07:41:22;99494.19;;;29.50;8.88
50105;BME280;47690;39.202;-77.198;2023-03-14T07:44:18;99489.88;;;29.57;8.83
50105;BME280;47690;39.202;-77.198;2023-03-14T07:46:49;99479.69;;;29.44;8.90
50105;BME280;47690;39.202;-77.198;2023-03-14T07:49:20;99481.03;;;29.40;9.12
50105;BME280;47690;39.202;-77.198;2023-03-14T07:51:49;99477.88;;;29.36;8.99
50105;BME280;47690;39.202;-77.198;2023-03-14T07:54:19;99473.06;;;29.31;8.84
50105;BME280;47690;39.202;-77.198;2023-03-14T07:56:49;99463.44;;;29.30;8.85
50105;BME280;47690;39.202;-77.198;2023-03-14T07:59:19;99465.44;;;29.37;8.74
50105;BME280;47690;39.202;-77.198;2023-03-14T08:01:49;99466.78;;;29.33;8.79
50105;BME280;47690;39.202;-77.198;2023-03-14T08:04:18;99468.09;;;29.28;8.75
50105;BME280;47690;39.202;-77.198;2023-03-14T08:06:47;99458.13;;;29.22;9.29
50105;BME280;47690;39.202;-77.198;2023-03-14T08:09:17;99467.28;;;29.20;8.91
50105;BME280;47690;39.202;-77.198;2023-03-14T08:11:46;99464.78;;;29.10;8.59
50105;BME280;47690;39.202;-77.198;2023-03-14T08:14:15;99459.13;;;29.13;8.99
50105;BME280;47690;39.202;-77.198;2023-03-14T08:16:46;99452.81;;;29.14;8.53
50105;BME280;47690;39.202;-77.198;2023-03-14T08:19:15;99463.13;;;29.09;8.61
50105;BME280;47690;39.202;-77.198;2023-03-14T08:21:45;99455.31;;;29.07;8.70
50105;BME280;47690;39.202;-77.198;2023-03-14T08:24:14;99464.59;;;29.11;8.81
50105;BME280;47690;39.202;-77.198;2023-03-14T08:26:43;99463.41;;;29.06;8.86
50105;BME280;47690;39.202;-77.198;2023-03-14T08:29:13;99459.97;;;29.05;8.63
50105;BME280;47690;39.202;-77.198;2023-03-14T08:31:42;99459.63;;;29.08;9.08
50105;BME280;47690;39.202;-77.198;2023-03-14T08:34:12;99454.16;;;29.01;8.87
50105;BME280;47690;39.202;-77.198;2023-03-14T08:36:41;99454.59;;;28.88;8.70
50105;BME280;47690;39.202;-77.198;2023-03-14T08:39:14;99451.94;;;28.88;8.82
50105;BME280;47690;39.202;-77.198;2023-03-14T08:41:43;99451.41;;;28.76;8.84
50105;BME280;47690;39.202;-77.198;2023-03-14T08:44:13;99456.16;;;29.24;8.69
50105;BME280;47690;39.202;-77.198;2023-03-14T08:46:46;99450.34;;;29.70;8.50
50105;BME280;47690;39.202;-77.198;2023-03-14T08:49:16;99459.00;;;29.81;8.42
50105;BME280;47690;39.202;-77.198;2023-03-14T08:51:46;99458.81;;;29.91;8.36
50105;BME280;47690;39.202;-77.198;2023-03-14T08:54:17;99454.47;;;29.15;8.54
50105;BME280;47690;39.202;-77.198;2023-03-14T08:56:48;99450.09;;;28.81;8.49
50105;BME280;47690;39.202;-77.198;2023-03-14T08:59:17;99450.53;;;28.68;8.62
50105;BME280;47690;39.202;-77.198;2023-03-14T09:01:47;99454.00;;;28.60;8.71
50105;BME280;47690;39.202;-77.198;2023-03-14T09:04:16;99444.19;;;28.52;8.84
50105;BME280;47690;39.202;-77.198;2023-03-14T09:06:46;99436.75;;;28.47;8.78
50105;BME280;47690;39.202;-77.198;2023-03-14T09:09:16;99443.69;;;28.48;9.17
50105;BME280;47690;39.202;-77.198;2023-03-14T09:11:46;99446.81;;;28.44;9.19
50105;BME280;47690;39.202;-77.198;2023-03-14T09:14:15;99439.69;;;28.36;8.89
50105;BME280;47690;39.202;-77.198;2023-03-14T09:16:45;99444.97;;;28.36;8.72
50105;BME280;47690;39.202;-77.198;2023-03-14T09:19:16;99444.50;;;28.41;9.07
50105;BME280;47690;39.202;-77.198;2023-03-14T09:21:46;99448.81;;;28.42;9.13
50105;BME280;47690;39.202;-77.198;2023-03-14T09:24:17;99444.66;;;28.39;8.91
50105;BME280;47690;39.202;-77.198;2023-03-14T09:26:48;99447.34;;;28.47;9.33
50105;BME280;47690;39.202;-77.198;2023-03-14T09:29:17;99447.16;;;28.41;9.15
50105;BME280;47690;39.202;-77.198;2023-03-14T09:31:48;99441.84;;;28.41;9.32
50105;BME280;47690;39.202;-77.198;2023-03-14T09:34:17;99437.84;;;28.36;9.29
50105;BME280;47690;39.202;-77.198;2023-03-14T09:36:51;99443.03;;;28.46;9.14
50105;BME280;47690;39.202;-77.198;2023-03-14T09:39:20;99439.34;;;28.39;9.01
50105;BME280;47690;39.202;-77.198;2023-03-14T09:41:51;99442.00;;;28.39;9.19
50105;BME280;47690;39.202;-77.198;2023-03-14T09:44:31;99454.59;;;28.37;8.89
50105;BME280;47690;39.202;-77.198;2023-03-14T09:47:05;99434.22;;;28.38;9.11
50105;BME280;47690;39.202;-77.198;2023-03-14T09:49:40;99440.69;;;28.35;9.12
50105;BME280;47690;39.202;-77.198;2023-03-14T09:52:29;99442.66;;;28.41;9.31
50105;BME280;47690;39.202;-77.198;2023-03-14T09:55:03;99443.16;;;28.36;9.01
50105;BME280;47690;39.202;-77.198;2023-03-14T09:57:34;99446.28;;;28.32;9.39
50105;BME280;47690;39.202;-77.198;2023-03-14T10:00:17;99447.63;;;28.36;9.17
50105;BME280;47690;39.202;-77.198;2023-03-14T10:02:57;99457.59;;;28.42;8.86
50105;BME280;47690;39.202;-77.198;2023-03-14T10:05:30;99457.13;;;28.47;9.30
50105;BME280;47690;39.202;-77.198;2023-03-14T10:08:01;99462.53;;;28.37;9.18
50105;BME280;47690;39.202;-77.198;2023-03-14T10:10:31;99460.19;;;28.34;8.75
50105;BME280;47690;39.202;-77.198;2023-03-14T10:13:21;99462.88;;;28.42;8.90
50105;BME280;47690;39.202;-77.198;2023-03-14T10:15:59;99472.00;;;28.48;9.04
50105;BME280;47690;39.202;-77.198;2023-03-14T10:18:29;99476.03;;;29.28;8.44
50105;BME280;47690;39.202;-77.198;2023-03-14T10:21:09;99477.53;;;28.71;8.56
50105;BME280;47690;39.202;-77.198;2023-03-14T10:23:46;99493.09;;;28.58;8.74
50105;BME280;47690;39.202;-77.198;2023-03-14T10:26:28;99501.63;;;28.43;8.84
50105;BME280;47690;39.202;-77.198;2023-03-14T10:29:09;99497.84;;;28.46;9.02
50105;BME280;47690;39.202;-77.198;2023-03-14T10:31:51;99506.22;;;28.41;9.32
50105;BME280;47690;39.202;-77.198;2023-03-14T10:34:25;99501.94;;;28.40;8.76
50105;BME280;47690;39.202;-77.198;2023-03-14T10:36:59;99518.75;;;28.31;9.46
50105;BME280;47690;39.202;-77.198;2023-03-14T10:42:50;99507.13;;;28.24;9.48
50105;BME280;47690;39.202;-77.198;2023-03-14T10:45:06;99512.19;;;28.35;9.23
50105;BME280;47690;39.202;-77.198;2023-03-14T10:47:50;99512.50;;;28.40;9.58
50105;BME280;47690;39.202;-77.198;2023-03-14T10:50:30;99500.47;;;28.46;9.09
50105;BME280;47690;39.202;-77.198;2023-03-14T10:53:02;99522.28;;;28.40;8.95
50105;BME280;47690;39.202;-77.198;2023-03-14T10:55:43;99517.16;;;29.16;9.27
50105;BME280;47690;39.202;-77.198;2023-03-14T10:58:25;99523.28;;;28.73;9.28
50105;BME280;47690;39.202;-77.198;2023-03-14T11:03:42;99524.19;;;28.56;9.04
50105;BME280;47690;39.202;-77.198;2023-03-14T11:06:21;99530.06;;;28.41;9.31
50105;BME280;47690;39.202;-77.198;2023-03-14T11:09:29;99534.53;;;28.41;9.15
50105;BME280;47690;39.202;-77.198;2023-03-14T11:18:39;99554.81;;;28.58;8.96
50105;BME280;47690;39.202;-77.198;2023-03-14T11:24:19;99568.31;;;28.39;9.27
50105;BME280;47690;39.202;-77.198;2023-03-14T11:32:44;99595.56;;;28.31;9.20
50105;BME280;47690;39.202;-77.198;2023-03-14T11:35:26;99595.34;;;28.24;9.51
50105;BME280;47690;39.202;-77.198;2023-03-14T11:40:50;99599.81;;;28.24;9.67
50105;BME280;47690;39.202;-77.198;2023-03-14T11:43:30;99601.00;;;28.29;9.31
50105;BME280;47690;39.202;-77.198;2023-03-14T11:46:05;99594.28;;;28.35;9.21
50105;BME280;47690;39.202;-77.198;2023-03-14T11:51:43;99604.16;;;28.59;9.35
50105;BME280;47690;39.202;-77.198;2023-03-14T11:54:32;99601.31;;;28.53;9.10
50105;BME280;47690;39.202;-77.198;2023-03-14T11:57:16;99602.00;;;28.55;9.41
50105;BME280;47690;39.202;-77.198;2023-03-14T12:02:46;99603.69;;;28.64;9.27
50105;BME280;47690;39.202;-77.198;2023-03-14T12:10:52;99599.84;;;28.85;8.77
50105;BME280;47690;39.202;-77.198;2023-03-14T12:13:36;99600.16;;;28.82;9.39
50105;BME280;47690;39.202;-77.198;2023-03-14T12:16:33;99613.16;;;28.93;8.84
50105;BME280;47690;39.202;-77.198;2023-03-14T12:19:35;99593.16;;;28.99;8.74
50105;BME280;47690;39.202;-77.198;2023-03-14T12:24:37;99602.50;;;28.85;8.70
50105;BME280;47690;39.202;-77.198;2023-03-14T12:27:13;99601.69;;;28.84;9.25
50105;BME280;47690;39.202;-77.198;2023-03-14T12:30:02;99617.38;;;29.72;8.39
50105;BME280;47690;39.202;-77.198;2023-03-14T12:32:39;99610.97;;;29.23;8.59
50105;BME280;47690;39.202;-77.198;2023-03-14T12:35:37;99618.84;;;29.07;8.68
50105;BME280;47690;39.202;-77.198;2023-03-14T12:43:44;99619.91;;;28.87;8.85
50105;BME280;47690;39.202;-77.198;2023-03-14T12:46:25;99646.81;;;28.74;9.12
50105;BME280;47690;39.202;-77.198;2023-03-14T12:51:42;99640.50;;;28.67;8.65
50105;BME280;47690;39.202;-77.198;2023-03-14T12:54:32;99639.16;;;28.71;8.51
50105;BME280;47690;39.202;-77.198;2023-03-14T13:02:38;99662.84;;;28.91;8.24
50105;BME280;47690;39.202;-77.198;2023-03-14T13:05:19;99666.13;;;28.85;8.62
50105;BME280;47690;39.202;-77.198;2023-03-14T13:10:25;99659.06;;;29.45;8.35
50105;BME280;47690;39.202;-77.198;2023-03-14T13:15:34;99657.84;;;29.74;8.80
50105;BME280;47690;39.202;-77.198;2023-03-14T13:18:23;99653.75;;;29.88;8.40
50105;BME280;47690;39.202;-77.198;2023-03-14T13:21:18;99652.25;;;29.85;8.16
50105;BME280;47690;39.202;-77.198;2023-03-14T13:24:01;99642.13;;;29.81;7.96
50105;BME280;47690;39.202;-77.198;2023-03-14T13:26:39;99655.91;;;29.33;8.23
50105;BME280;47690;39.202;-77.198;2023-03-14T13:29:24;99643.13;;;29.37;8.55
50105;BME280;47690;39.202;-77.198;2023-03-14T13:31:59;99642.25;;;29.54;8.38
50105;BME280;47690;39.202;-77.198;2023-03-14T13:34:33;99645.41;;;29.58;8.58
50105;BME280;47690;39.202;-77.198;2023-03-14T13:37:02;99674.72;;;29.48;8.23
50105;BME280;47690;39.202;-77.198;2023-03-14T13:39:32;99637.13;;;29.18;8.20
50105;BME280;47690;39.202;-77.198;2023-03-14T13:42:02;99660.84;;;29.20;8.23
50105;BME280;47690;39.202;-77.198;2023-03-14T13:44:38;99667.09;;;29.18;8.36
50105;BME280;47690;39.202;-77.198;2023-03-14T13:47:26;99652.34;;;29.51;8.25
50105;BME280;47690;39.202;-77.198;2023-03-14T13:49:58;99659.00;;;29.63;8.58
50105;BME280;47690;39.202;-77.198;2023-03-14T13:52:37;99660.34;;;29.67;8.56
50105;BME280;47690;39.202;-77.198;2023-03-14T13:55:15;99645.66;;;30.15;8.00
50105;BME280;47690;39.202;-77.198;2023-03-14T13:57:53;99662.09;;;30.26;7.90
50105;BME280;47690;39.202;-77.198;2023-03-14T14:00:26;99676.88;;;30.21;7.87
50105;BME280;47690;39.202;-77.198;2023-03-14T14:03:02;99666.03;;;30.06;8.13
50105;BME280;47690;39.202;-77.198;2023-03-14T14:05:33;99661.56;;;29.90;7.97
50105;BME280;47690;39.202;-77.198;2023-03-14T14:08:06;99668.34;;;29.92;8.08
50105;BME280;47690;39.202;-77.198;2023-03-14T14:10:37;99679.28;;;29.81;8.34
50105;BME280;47690;39.202;-77.198;2023-03-14T14:13:16;99682.94;;;29.80;7.95
50105;BME280;47690;39.202;-77.198;2023-03-14T14:15:52;99690.75;;;29.90;7.97
50105;BME280;47690;39.202;-77.198;2023-03-14T14:18:31;99685.91;;;29.85;8.02
50105;BME280;47690;39.202;-77.198;2023-03-14T14:21:03;99677.00;;;29.94;7.88
50105;BME280;47690;39.202;-77.198;2023-03-14T14:23:33;99676.81;;;29.96;8.12
50105;BME280;47690;39.202;-77.198;2023-03-14T14:26:06;99702.53;;;30.04;8.10
50105;BME280;47690;39.202;-77.198;2023-03-14T14:28:36;99681.50;;;30.10;7.98
50105;BME280;47690;39.202;-77.198;2023-03-14T14:31:22;99697.78;;;30.07;7.55
50105;BME280;47690;39.202;-77.198;2023-03-14T14:34:02;99704.69;;;30.00;7.92